Terminal Aerodrome Forecast
Issued by NWS Lake Charles, LA

Home | Current Version | Previous Version | Text Only | Print | Product List | Glossary On
Versions: 1 2 3 4 5 6 7 8 9 10 11 12 13 14 15
000
FTUS44 KLCH 231125
TAFARA
TAF
KARA 231125Z 2312/2412 00000KT 5SM BR SKC
      TEMPO 2312/2314 1SM BR SCT002
     FM231400 29008KT P6SM SKC
     FM231700 30014G20KT P6SM FEW250
     FM240000 29005KT P6SM SKC=

USA.gov is the U.S. government's official web portal to all federal, state and local government web resources and services.